sensor_id;sensor_type;location;lat;lon;timestamp;P1;durP1;ratioP1;P2;durP2;ratioP2
64619;SDS011;51029;51.058;13.826;2022-07-23T00:00:11;7.20;;;5.10;;
64619;SDS011;51029;51.058;13.826;2022-07-23T00:02:37;6.23;;;5.10;;
64619;SDS011;51029;51.058;13.826;2022-07-23T00:05:03;6.63;;;4.80;;
64619;SDS011;51029;51.058;13.826;2022-07-23T00:07:29;7.63;;;5.40;;
64619;SDS011;51029;51.058;13.826;2022-07-23T00:09:55;5.60;;;5.10;;
64619;SDS011;51029;51.058;13.826;2022-07-23T00:12:21;5.73;;;5.10;;
64619;SDS011;51029;51.058;13.826;2022-07-23T00:14:47;5.17;;;4.70;;
64619;SDS011;51029;51.058;13.826;2022-07-23T00:17:13;6.23;;;5.30;;
64619;SDS011;51029;51.058;13.826;2022-07-23T00:19:39;5.63;;;5.10;;
64619;SDS011;51029;51.058;13.826;2022-07-23T00:22:05;6.93;;;5.40;;
64619;SDS011;51029;51.058;13.826;2022-07-23T00:24:31;5.93;;;5.27;;
64619;SDS011;51029;51.058;13.826;2022-07-23T00:26:57;5.37;;;4.87;;
64619;SDS011;51029;51.058;13.826;2022-07-23T00:29:22;5.93;;;5.30;;
64619;SDS011;51029;51.058;13.826;2022-07-23T00:31:49;5.87;;;5.13;;
64619;SDS011;51029;51.058;13.826;2022-07-23T00:34:14;5.83;;;5.10;;
64619;SDS011;51029;51.058;13.826;2022-07-23T00:36:40;6.07;;;5.47;;
64619;SDS011;51029;51.058;13.826;2022-07-23T00:39:06;6.43;;;5.03;;
64619;SDS011;51029;51.058;13.826;2022-07-23T00:41:32;7.27;;;5.40;;
64619;SDS011;51029;51.058;13.826;2022-07-23T00:44:14;6.00;;;5.13;;
64619;SDS011;51029;51.058;13.826;2022-07-23T00:46:48;6.00;;;5.40;;
64619;SDS011;51029;51.058;13.826;2022-07-23T00:49:14;5.83;;;5.27;;
64619;SDS011;51029;51.058;13.826;2022-07-23T00:51:40;5.60;;;5.10;;
64619;SDS011;51029;51.058;13.826;2022-07-23T00:54:06;5.53;;;5.03;;
64619;SDS011;51029;51.058;13.826;2022-07-23T00:56:32;5.63;;;5.13;;
64619;SDS011;51029;51.058;13.826;2022-07-23T00:58:59;6.00;;;5.50;;
64619;SDS011;51029;51.058;13.826;2022-07-23T01:01:26;5.87;;;5.27;;
64619;SDS011;51029;51.058;13.826;2022-07-23T01:03:52;7.03;;;5.60;;
64619;SDS011;51029;51.058;13.826;2022-07-23T01:06:17;6.17;;;5.17;;
64619;SDS011;51029;51.058;13.826;2022-07-23T01:08:43;5.63;;;4.90;;
64619;SDS011;51029;51.058;13.826;2022-07-23T01:11:10;7.53;;;5.37;;
64619;SDS011;51029;51.058;13.826;2022-07-23T01:13:40;5.20;;;4.70;;
64619;SDS011;51029;51.058;13.826;2022-07-23T01:16:06;6.17;;;4.63;;
64619;SDS011;51029;51.058;13.826;2022-07-23T01:18:32;5.27;;;4.77;;
64619;SDS011;51029;51.058;13.826;2022-07-23T01:20:58;5.30;;;4.80;;
64619;SDS011;51029;51.058;13.826;2022-07-23T01:23:24;5.37;;;4.87;;
64619;SDS011;51029;51.058;13.826;2022-07-23T01:25:53;5.93;;;4.60;;
64619;SDS011;51029;51.058;13.826;2022-07-23T01:28:19;5.40;;;4.90;;
64619;SDS011;51029;51.058;13.826;2022-07-23T01:30:45;4.80;;;4.37;;
64619;SDS011;51029;51.058;13.826;2022-07-23T01:33:11;5.63;;;4.83;;
64619;SDS011;51029;51.058;13.826;2022-07-23T01:35:37;6.03;;;4.70;;
64619;SDS011;51029;51.058;13.826;2022-07-23T01:38:03;5.37;;;4.60;;
64619;SDS011;51029;51.058;13.826;2022-07-23T01:40:29;6.20;;;4.87;;
64619;SDS011;51029;51.058;13.826;2022-07-23T01:42:55;5.07;;;4.67;;
64619;SDS011;51029;51.058;13.826;2022-07-23T01:45:21;5.80;;;4.57;;
64619;SDS011;51029;51.058;13.826;2022-07-23T01:47:47;4.80;;;4.40;;
64619;SDS011;51029;51.058;13.826;2022-07-23T01:50:13;4.77;;;4.30;;
64619;SDS011;51029;51.058;13.826;2022-07-23T01:52:39;6.13;;;4.40;;
64619;SDS011;51029;51.058;13.826;2022-07-23T01:55:06;7.27;;;4.87;;
64619;SDS011;51029;51.058;13.826;2022-07-23T01:57:32;4.87;;;4.47;;
64619;SDS011;51029;51.058;13.826;2022-07-23T01:59:58;5.40;;;4.50;;
64619;SDS011;51029;51.058;13.826;2022-07-23T02:02:24;5.00;;;4.60;;
64619;SDS011;51029;51.058;13.826;2022-07-23T02:04:50;5.23;;;4.80;;
64619;SDS011;51029;51.058;13.826;2022-07-23T02:07:16;6.63;;;5.03;;
64619;SDS011;51029;51.058;13.826;2022-07-23T02:09:42;6.00;;;4.90;;
64619;SDS011;51029;51.058;13.826;2022-07-23T02:12:08;9.33;;;4.90;;
64619;SDS011;51029;51.058;13.826;2022-07-23T02:14:34;5.30;;;4.80;;
64619;SDS011;51029;51.058;13.826;2022-07-23T02:16:59;5.30;;;4.73;;
64619;SDS011;51029;51.058;13.826;2022-07-23T02:19:25;5.20;;;4.80;;
64619;SDS011;51029;51.058;13.826;2022-07-23T02:21:52;5.03;;;4.50;;
64619;SDS011;51029;51.058;13.826;2022-07-23T02:24:19;5.53;;;5.00;;
64619;SDS011;51029;51.058;13.826;2022-07-23T02:26:45;4.80;;;4.30;;
64619;SDS011;51029;51.058;13.826;2022-07-23T02:29:11;5.87;;;5.03;;
64619;SDS011;51029;51.058;13.826;2022-07-23T02:31:37;6.40;;;5.20;;
64619;SDS011;51029;51.058;13.826;2022-07-23T02:34:03;6.17;;;5.10;;
64619;SDS011;51029;51.058;13.826;2022-07-23T02:36:29;7.73;;;4.60;;
64619;SDS011;51029;51.058;13.826;2022-07-23T02:38:55;5.70;;;5.23;;
64619;SDS011;51029;51.058;13.826;2022-07-23T02:41:21;5.23;;;4.73;;
64619;SDS011;51029;51.058;13.826;2022-07-23T02:43:47;5.63;;;5.13;;
64619;SDS011;51029;51.058;13.826;2022-07-23T02:46:13;5.47;;;4.67;;
64619;SDS011;51029;51.058;13.826;2022-07-23T02:48:39;5.20;;;4.80;;
64619;SDS011;51029;51.058;13.826;2022-07-23T02:51:05;5.50;;;5.00;;
64619;SDS011;51029;51.058;13.826;2022-07-23T02:53:31;8.87;;;5.13;;
64619;SDS011;51029;51.058;13.826;2022-07-23T02:55:57;6.80;;;5.03;;
64619;SDS011;51029;51.058;13.826;2022-07-23T02:58:23;7.03;;;5.30;;
64619;SDS011;51029;51.058;13.826;2022-07-23T03:00:51;8.33;;;5.10;;
64619;SDS011;51029;51.058;13.826;2022-07-23T03:03:17;6.03;;;5.20;;
64619;SDS011;51029;51.058;13.826;2022-07-23T03:05:43;5.17;;;4.57;;
64619;SDS011;51029;51.058;13.826;2022-07-23T03:08:09;5.90;;;5.40;;
64619;SDS011;51029;51.058;13.826;2022-07-23T03:10:35;6.03;;;5.53;;
64619;SDS011;51029;51.058;13.826;2022-07-23T03:13:00;5.37;;;4.87;;
64619;SDS011;51029;51.058;13.826;2022-07-23T03:15:26;5.70;;;5.20;;
64619;SDS011;51029;51.058;13.826;2022-07-23T03:17:52;8.27;;;5.40;;
64619;SDS011;51029;51.058;13.826;2022-07-23T03:20:18;6.80;;;5.07;;
64619;SDS011;51029;51.058;13.826;2022-07-23T03:22:44;5.33;;;4.93;;
64619;SDS011;51029;51.058;13.826;2022-07-23T03:25:10;5.50;;;4.97;;
64619;SDS011;51029;51.058;13.826;2022-07-23T03:27:36;6.33;;;4.60;;
64619;SDS011;51029;51.058;13.826;2022-07-23T03:30:02;6.43;;;5.23;;
64619;SDS011;51029;51.058;13.826;2022-07-23T03:32:28;5.87;;;5.33;;
64619;SDS011;51029;51.058;13.826;2022-07-23T03:34:56;5.67;;;4.80;;
64619;SDS011;51029;51.058;13.826;2022-07-23T03:37:22;8.37;;;5.17;;
64619;SDS011;51029;51.058;13.826;2022-07-23T03:39:48;5.97;;;5.17;;
64619;SDS011;51029;51.058;13.826;2022-07-23T03:42:14;5.87;;;5.17;;
64619;SDS011;51029;51.058;13.826;2022-07-23T03:44:40;5.80;;;5.37;;
64619;SDS011;51029;51.058;13.826;2022-07-23T03:47:06;8.07;;;5.67;;
64619;SDS011;51029;51.058;13.826;2022-07-23T03:49:32;6.53;;;5.30;;
64619;SDS011;51029;51.058;13.826;2022-07-23T03:51:58;4.93;;;4.53;;
64619;SDS011;51029;51.058;13.826;2022-07-23T03:54:24;5.53;;;4.87;;
64619;SDS011;51029;51.058;13.826;2022-07-23T03:56:50;5.70;;;5.20;;
64619;SDS011;51029;51.058;13.826;2022-07-23T03:59:16;5.80;;;5.30;;
64619;SDS011;51029;51.058;13.826;2022-07-23T04:01:42;5.80;;;5.30;;
64619;SDS011;51029;51.058;13.826;2022-07-23T04:04:08;5.80;;;5.30;;
64619;SDS011;51029;51.058;13.826;2022-07-23T04:06:34;5.63;;;5.13;;
64619;SDS011;51029;51.058;13.826;2022-07-23T04:09:00;7.27;;;5.07;;
64619;SDS011;51029;51.058;13.826;2022-07-23T04:11:26;6.00;;;5.33;;
64619;SDS011;51029;51.058;13.826;2022-07-23T04:13:52;5.80;;;5.20;;
64619;SDS011;51029;51.058;13.826;2022-07-23T04:16:18;6.10;;;5.17;;
64619;SDS011;51029;51.058;13.826;2022-07-23T04:18:44;5.90;;;5.40;;
64619;SDS011;51029;51.058;13.826;2022-07-23T04:21:10;5.47;;;4.97;;
64619;SDS011;51029;51.058;13.826;2022-07-23T04:23:36;5.70;;;5.20;;
64619;SDS011;51029;51.058;13.826;2022-07-23T04:26:02;6.10;;;5.50;;
64619;SDS011;51029;51.058;13.826;2022-07-23T04:28:28;7.07;;;5.90;;
64619;SDS011;51029;51.058;13.826;2022-07-23T04:30:55;6.30;;;5.70;;
64619;SDS011;51029;51.058;13.826;2022-07-23T04:33:22;6.80;;;6.10;;
64619;SDS011;51029;51.058;13.826;2022-07-23T04:35:48;6.70;;;6.17;;
64619;SDS011;51029;51.058;13.826;2022-07-23T04:38:14;7.40;;;6.23;;
64619;SDS011;51029;51.058;13.826;2022-07-23T04:40:40;6.70;;;5.80;;
64619;SDS011;51029;51.058;13.826;2022-07-23T04:43:06;6.37;;;5.87;;
64619;SDS011;51029;51.058;13.826;2022-07-23T04:45:32;7.63;;;6.17;;
64619;SDS011;51029;51.058;13.826;2022-07-23T04:47:57;6.80;;;6.13;;
64619;SDS011;51029;51.058;13.826;2022-07-23T04:50:23;7.07;;;6.37;;
64619;SDS011;51029;51.058;13.826;2022-07-23T04:52:49;7.30;;;6.60;;
64619;SDS011;51029;51.058;13.826;2022-07-23T04:55:16;6.13;;;5.63;;
64619;SDS011;51029;51.058;13.826;2022-07-23T04:57:42;6.97;;;5.57;;
64619;SDS011;51029;51.058;13.826;2022-07-23T05:00:09;6.47;;;5.90;;
64619;SDS011;51029;51.058;13.826;2022-07-23T05:02:35;6.07;;;5.57;;
64619;SDS011;51029;51.058;13.826;2022-07-23T05:05:01;5.50;;;5.10;;
64619;SDS011;51029;51.058;13.826;2022-07-23T05:07:27;6.00;;;5.40;;
64619;SDS011;51029;51.058;13.826;2022-07-23T05:09:53;6.63;;;5.60;;
64619;SDS011;51029;51.058;13.826;2022-07-23T05:12:19;5.97;;;5.33;;
64619;SDS011;51029;51.058;13.826;2022-07-23T05:14:45;7.10;;;5.73;;
64619;SDS011;51029;51.058;13.826;2022-07-23T05:17:11;6.97;;;5.63;;
64619;SDS011;51029;51.058;13.826;2022-07-23T05:19:37;6.97;;;5.60;;
64619;SDS011;51029;51.058;13.826;2022-07-23T05:22:03;6.20;;;5.63;;
64619;SDS011;51029;51.058;13.826;2022-07-23T05:24:29;6.50;;;5.90;;
64619;SDS011;51029;51.058;13.826;2022-07-23T05:26:55;7.43;;;5.83;;
64619;SDS011;51029;51.058;13.826;2022-07-23T05:29:20;7.83;;;5.80;;
64619;SDS011;51029;51.058;13.826;2022-07-23T05:31:46;6.43;;;5.63;;
64619;SDS011;51029;51.058;13.826;2022-07-23T05:34:12;6.00;;;5.50;;
64619;SDS011;51029;51.058;13.826;2022-07-23T05:36:38;6.13;;;5.53;;
64619;SDS011;51029;51.058;13.826;2022-07-23T05:39:04;6.43;;;5.70;;
64619;SDS011;51029;51.058;13.826;2022-07-23T05:41:30;5.73;;;5.33;;
64619;SDS011;51029;51.058;13.826;2022-07-23T05:43:56;6.10;;;5.50;;
64619;SDS011;51029;51.058;13.826;2022-07-23T05:46:22;6.20;;;5.70;;
64619;SDS011;51029;51.058;13.826;2022-07-23T05:48:48;6.53;;;5.10;;
64619;SDS011;51029;51.058;13.826;2022-07-23T05:51:20;5.93;;;5.43;;
64619;SDS011;51029;51.058;13.826;2022-07-23T05:53:46;6.40;;;5.77;;
64619;SDS011;51029;51.058;13.826;2022-07-23T05:56:12;6.00;;;5.50;;
64619;SDS011;51029;51.058;13.826;2022-07-23T05:58:38;6.30;;;5.57;;
64619;SDS011;51029;51.058;13.826;2022-07-23T06:01:04;7.60;;;5.53;;
64619;SDS011;51029;51.058;13.826;2022-07-23T06:03:30;6.77;;;5.30;;
64619;SDS011;51029;51.058;13.826;2022-07-23T06:05:56;6.67;;;5.60;;
64619;SDS011;51029;51.058;13.826;2022-07-23T06:08:22;6.63;;;5.30;;
64619;SDS011;51029;51.058;13.826;2022-07-23T06:10:48;9.40;;;5.03;;
64619;SDS011;51029;51.058;13.826;2022-07-23T06:13:15;7.33;;;5.00;;
64619;SDS011;51029;51.058;13.826;2022-07-23T06:15:42;6.27;;;5.60;;
64619;SDS011;51029;51.058;13.826;2022-07-23T06:18:08;5.57;;;5.07;;
64619;SDS011;51029;51.058;13.826;2022-07-23T06:20:34;5.80;;;5.20;;
64619;SDS011;51029;51.058;13.826;2022-07-23T06:23:00;5.30;;;4.80;;
64619;SDS011;51029;51.058;13.826;2022-07-23T06:25:26;5.60;;;5.10;;
64619;SDS011;51029;51.058;13.826;2022-07-23T06:27:52;5.90;;;4.80;;
64619;SDS011;51029;51.058;13.826;2022-07-23T06:30:18;5.87;;;5.27;;
64619;SDS011;51029;51.058;13.826;2022-07-23T06:32:45;6.37;;;5.63;;
64619;SDS011;51029;51.058;13.826;2022-07-23T06:35:11;6.03;;;5.07;;
64619;SDS011;51029;51.058;13.826;2022-07-23T06:37:37;6.27;;;5.27;;
64619;SDS011;51029;51.058;13.826;2022-07-23T06:40:03;6.20;;;5.60;;
64619;SDS011;51029;51.058;13.826;2022-07-23T06:42:29;6.60;;;6.00;;
64619;SDS011;51029;51.058;13.826;2022-07-23T06:44:55;6.17;;;5.67;;
64619;SDS011;51029;51.058;13.826;2022-07-23T06:47:21;6.63;;;5.97;;
64619;SDS011;51029;51.058;13.826;2022-07-23T06:49:47;7.20;;;6.50;;
64619;SDS011;51029;51.058;13.826;2022-07-23T06:52:13;7.10;;;6.03;;
64619;SDS011;51029;51.058;13.826;2022-07-23T06:54:39;6.37;;;5.77;;
64619;SDS011;51029;51.058;13.826;2022-07-23T06:57:04;7.17;;;6.07;;
64619;SDS011;51029;51.058;13.826;2022-07-23T06:59:30;6.17;;;5.57;;
64619;SDS011;51029;51.058;13.826;2022-07-23T07:01:57;6.60;;;6.00;;
64619;SDS011;51029;51.058;13.826;2022-07-23T07:04:23;7.27;;;6.40;;
64619;SDS011;51029;51.058;13.826;2022-07-23T07:06:49;7.77;;;7.07;;
64619;SDS011;51029;51.058;13.826;2022-07-23T07:09:15;6.87;;;6.17;;
64619;SDS011;51029;51.058;13.826;2022-07-23T07:11:41;7.13;;;6.43;;
64619;SDS011;51029;51.058;13.826;2022-07-23T07:14:07;7.17;;;6.50;;
64619;SDS011;51029;51.058;13.826;2022-07-23T07:16:33;9.97;;;6.40;;
64619;SDS011;51029;51.058;13.826;2022-07-23T07:18:59;6.90;;;6.20;;
64619;SDS011;51029;51.058;13.826;2022-07-23T07:21:25;7.77;;;6.80;;
64619;SDS011;51029;51.058;13.826;2022-07-23T07:23:51;7.63;;;6.57;;
64619;SDS011;51029;51.058;13.826;2022-07-23T07:26:17;6.87;;;6.27;;
64619;SDS011;51029;51.058;13.826;2022-07-23T07:28:43;7.00;;;6.40;;
64619;SDS011;51029;51.058;13.826;2022-07-23T07:31:09;6.73;;;6.13;;
64619;SDS011;51029;51.058;13.826;2022-07-23T07:33:35;8.40;;;6.00;;
64619;SDS011;51029;51.058;13.826;2022-07-23T07:36:01;6.53;;;5.57;;
64619;SDS011;51029;51.058;13.826;2022-07-23T07:38:27;6.10;;;5.53;;
64619;SDS011;51029;51.058;13.826;2022-07-23T07:40:53;7.30;;;6.33;;
64619;SDS011;51029;51.058;13.826;2022-07-23T07:43:19;6.97;;;5.80;;
64619;SDS011;51029;51.058;13.826;2022-07-23T07:45:45;6.07;;;5.47;;
64619;SDS011;51029;51.058;13.826;2022-07-23T07:48:11;5.83;;;5.23;;
64619;SDS011;51029;51.058;13.826;2022-07-23T07:50:37;5.87;;;5.37;;
64619;SDS011;51029;51.058;13.826;2022-07-23T07:53:03;6.40;;;5.63;;
64619;SDS011;51029;51.058;13.826;2022-07-23T07:55:29;6.17;;;5.60;;
64619;SDS011;51029;51.058;13.826;2022-07-23T07:57:55;5.97;;;5.30;;
64619;SDS011;51029;51.058;13.826;2022-07-23T08:00:21;6.03;;;5.37;;
64619;SDS011;51029;51.058;13.826;2022-07-23T08:02:48;5.83;;;5.33;;
64619;SDS011;51029;51.058;13.826;2022-07-23T08:05:18;5.93;;;5.13;;
64619;SDS011;51029;51.058;13.826;2022-07-23T08:07:44;5.10;;;4.60;;
64619;SDS011;51029;51.058;13.826;2022-07-23T08:10:10;5.17;;;4.70;;
64619;SDS011;51029;51.058;13.826;2022-07-23T08:12:40;5.37;;;4.90;;
64619;SDS011;51029;51.058;13.826;2022-07-23T08:15:06;5.50;;;4.73;;
64619;SDS011;51029;51.058;13.826;2022-07-23T08:17:32;5.30;;;4.80;;
64619;SDS011;51029;51.058;13.826;2022-07-23T08:19:58;5.47;;;4.93;;
64619;SDS011;51029;51.058;13.826;2022-07-23T08:22:24;5.77;;;5.13;;
64619;SDS011;51029;51.058;13.826;2022-07-23T08:24:50;6.77;;;4.97;;
64619;SDS011;51029;51.058;13.826;2022-07-23T08:27:16;6.70;;;4.93;;
64619;SDS011;51029;51.058;13.826;2022-07-23T08:29:42;5.67;;;5.17;;
64619;SDS011;51029;51.058;13.826;2022-07-23T08:32:08;5.07;;;4.67;;
64619;SDS011;51029;51.058;13.826;2022-07-23T08:34:34;13.23;;;11.83;;
64619;SDS011;51029;51.058;13.826;2022-07-23T08:36:59;9.33;;;8.47;;
64619;SDS011;51029;51.058;13.826;2022-07-23T08:39:25;7.30;;;5.40;;
64619;SDS011;51029;51.058;13.826;2022-07-23T08:41:52;7.53;;;5.87;;
64619;SDS011;51029;51.058;13.826;2022-07-23T08:44:18;6.70;;;5.80;;
64619;SDS011;51029;51.058;13.826;2022-07-23T08:46:44;7.43;;;4.70;;
64619;SDS011;51029;51.058;13.826;2022-07-23T08:49:11;5.97;;;5.40;;
64619;SDS011;51029;51.058;13.826;2022-07-23T08:51:38;6.57;;;4.97;;
64619;SDS011;51029;51.058;13.826;2022-07-23T08:54:04;4.93;;;4.53;;
64619;SDS011;51029;51.058;13.826;2022-07-23T08:56:30;5.87;;;5.37;;
64619;SDS011;51029;51.058;13.826;2022-07-23T08:58:56;6.00;;;5.40;;
64619;SDS011;51029;51.058;13.826;2022-07-23T09:01:23;5.87;;;4.87;;
64619;SDS011;51029;51.058;13.826;2022-07-23T09:03:49;5.87;;;5.10;;
64619;SDS011;51029;51.058;13.826;2022-07-23T09:06:14;5.40;;;4.80;;
64619;SDS011;51029;51.058;13.826;2022-07-23T09:08:41;5.40;;;4.60;;
64619;SDS011;51029;51.058;13.826;2022-07-23T09:11:08;5.40;;;4.70;;
64619;SDS011;51029;51.058;13.826;2022-07-23T09:13:42;5.40;;;4.90;;
64619;SDS011;51029;51.058;13.826;2022-07-23T09:16:10;5.60;;;5.10;;
64619;SDS011;51029;51.058;13.826;2022-07-23T09:23:43;5.17;;;4.77;;
64619;SDS011;51029;51.058;13.826;2022-07-23T09:26:16;6.33;;;4.87;;
64619;SDS011;51029;51.058;13.826;2022-07-23T09:31:21;5.90;;;5.40;;
64619;SDS011;51029;51.058;13.826;2022-07-23T09:33:47;6.23;;;5.10;;
64619;SDS011;51029;51.058;13.826;2022-07-23T09:36:13;5.70;;;5.10;;
64619;SDS011;51029;51.058;13.826;2022-07-23T09:38:49;5.20;;;4.70;;
64619;SDS011;51029;51.058;13.826;2022-07-23T09:41:16;5.27;;;4.80;;
64619;SDS011;51029;51.058;13.826;2022-07-23T09:43:42;5.50;;;5.00;;
64619;SDS011;51029;51.058;13.826;2022-07-23T09:46:21;5.70;;;5.13;;
64619;SDS011;51029;51.058;13.826;2022-07-23T09:48:49;5.33;;;4.93;;
64619;SDS011;51029;51.058;13.826;2022-07-23T09:51:16;6.73;;;4.67;;
64619;SDS011;51029;51.058;13.826;2022-07-23T09:54:00;5.03;;;4.57;;
64619;SDS011;51029;51.058;13.826;2022-07-23T09:56:27;5.60;;;5.10;;
64619;SDS011;51029;51.058;13.826;2022-07-23T09:58:53;5.87;;;5.37;;
64619;SDS011;51029;51.058;13.826;2022-07-23T10:01:34;5.20;;;4.70;;
64619;SDS011;51029;51.058;13.826;2022-07-23T10:04:00;5.20;;;4.70;;
64619;SDS011;51029;51.058;13.826;2022-07-23T10:06:27;5.50;;;4.97;;
64619;SDS011;51029;51.058;13.826;2022-07-23T10:08:53;6.70;;;5.00;;
64619;SDS011;51029;51.058;13.826;2022-07-23T10:11:20;5.43;;;5.03;;
64619;SDS011;51029;51.058;13.826;2022-07-23T10:13:46;5.77;;;5.03;;
64619;SDS011;51029;51.058;13.826;2022-07-23T10:16:26;6.37;;;5.43;;
64619;SDS011;51029;51.058;13.826;2022-07-23T10:18:52;5.20;;;4.73;;
64619;SDS011;51029;51.058;13.826;2022-07-23T10:21:21;5.65;;;5.03;;
64619;SDS011;51029;51.058;13.826;2022-07-23T10:24:10;5.60;;;5.10;;
64619;SDS011;51029;51.058;13.826;2022-07-23T10:26:41;6.00;;;5.38;;
64619;SDS011;51029;51.058;13.826;2022-07-23T10:29:11;5.72;;;4.93;;
64619;SDS011;51029;51.058;13.826;2022-07-23T10:34:25;5.32;;;4.82;;
64619;SDS011;51029;51.058;13.826;2022-07-23T10:36:56;6.18;;;5.30;;
64619;SDS011;51029;51.058;13.826;2022-07-23T10:39:28;5.63;;;5.03;;
64619;SDS011;51029;51.058;13.826;2022-07-23T10:42:08;6.03;;;5.43;;
64619;SDS011;51029;51.058;13.826;2022-07-23T10:44:39;6.30;;;4.88;;
64619;SDS011;51029;51.058;13.826;2022-07-23T10:47:05;6.10;;;5.60;;
64619;SDS011;51029;51.058;13.826;2022-07-23T10:49:46;7.30;;;5.63;;
64619;SDS011;51029;51.058;13.826;2022-07-23T10:57:31;5.63;;;5.22;;
64619;SDS011;51029;51.058;13.826;2022-07-23T11:00:13;6.30;;;5.28;;
64619;SDS011;51029;51.058;13.826;2022-07-23T11:02:44;5.15;;;4.60;;
64619;SDS011;51029;51.058;13.826;2022-07-23T11:05:11;5.35;;;4.53;;
64619;SDS011;51029;51.058;13.826;2022-07-23T11:10:45;5.85;;;4.35;;
64619;SDS011;51029;51.058;13.826;2022-07-23T11:21:40;5.53;;;4.03;;
64619;SDS011;51029;51.058;13.826;2022-07-23T11:24:06;4.88;;;4.38;;
64619;SDS011;51029;51.058;13.826;2022-07-23T11:32:03;7.07;;;4.47;;
64619;SDS011;51029;51.058;13.826;2022-07-23T11:36:58;4.90;;;4.40;;
64619;SDS011;51029;51.058;13.826;2022-07-23T11:39:25;10.85;;;4.20;;
64619;SDS011;51029;51.058;13.826;2022-07-23T11:41:52;5.20;;;4.70;;
64619;SDS011;51029;51.058;13.826;2022-07-23T11:44:28;6.45;;;4.03;;
64619;SDS011;51029;51.058;13.826;2022-07-23T11:46:55;6.03;;;4.35;;
64619;SDS011;51029;51.058;13.826;2022-07-23T11:49:22;5.18;;;4.32;;
64619;SDS011;51029;51.058;13.826;2022-07-23T11:52:01;5.88;;;4.70;;
64619;SDS011;51029;51.058;13.826;2022-07-23T11:54:28;5.20;;;4.32;;
64619;SDS011;51029;51.058;13.826;2022-07-23T11:56:58;6.60;;;4.33;;
64619;SDS011;51029;51.058;13.826;2022-07-23T11:59:24;4.90;;;4.40;;
64619;SDS011;51029;51.058;13.826;2022-07-23T12:01:58;5.40;;;4.63;;
64619;SDS011;51029;51.058;13.826;2022-07-23T12:04:46;5.03;;;4.60;;
64619;SDS011;51029;51.058;13.826;2022-07-23T12:09:49;7.13;;;4.73;;
64619;SDS011;51029;51.058;13.826;2022-07-23T12:12:15;6.10;;;4.57;;
64619;SDS011;51029;51.058;13.826;2022-07-23T12:17:16;5.50;;;4.33;;
64619;SDS011;51029;51.058;13.826;2022-07-23T12:19:42;7.20;;;5.30;;
64619;SDS011;51029;51.058;13.826;2022-07-23T12:22:08;5.97;;;5.47;;
64619;SDS011;51029;51.058;13.826;2022-07-23T12:24:54;7.27;;;6.40;;
64619;SDS011;51029;51.058;13.826;2022-07-23T12:27:20;7.00;;;6.40;;
64619;SDS011;51029;51.058;13.826;2022-07-23T12:29:46;10.13;;;6.63;;
64619;SDS011;51029;51.058;13.826;2022-07-23T12:32:25;6.33;;;5.73;;
64619;SDS011;51029;51.058;13.826;2022-07-23T12:35:04;7.27;;;6.10;;
64619;SDS011;51029;51.058;13.826;2022-07-23T12:37:37;7.10;;;6.40;;
64619;SDS011;51029;51.058;13.826;2022-07-23T12:42:49;7.13;;;6.47;;
64619;SDS011;51029;51.058;13.826;2022-07-23T12:45:15;6.33;;;5.73;;
64619;SDS011;51029;51.058;13.826;2022-07-23T12:47:52;6.43;;;5.68;;
64619;SDS011;51029;51.058;13.826;2022-07-23T12:50:39;5.78;;;5.20;;
64619;SDS011;51029;51.058;13.826;2022-07-23T12:53:07;5.72;;;5.22;;
64619;SDS011;51029;51.058;13.826;2022-07-23T12:55:34;6.60;;;5.57;;
64619;SDS011;51029;51.058;13.826;2022-07-23T12:58:05;6.03;;;5.43;;
64619;SDS011;51029;51.058;13.826;2022-07-23T13:00:31;5.85;;;5.10;;
64619;SDS011;51029;51.058;13.826;2022-07-23T13:02:57;6.15;;;5.35;;
64619;SDS011;51029;51.058;13.826;2022-07-23T13:05:23;6.28;;;5.53;;
64619;SDS011;51029;51.058;13.826;2022-07-23T13:07:49;6.53;;;5.87;;
64619;SDS011;51029;51.058;13.826;2022-07-23T13:10:15;6.27;;;5.77;;
64619;SDS011;51029;51.058;13.826;2022-07-23T13:12:41;6.17;;;5.57;;
64619;SDS011;51029;51.058;13.826;2022-07-23T13:15:07;5.88;;;5.28;;
64619;SDS011;51029;51.058;13.826;2022-07-23T13:17:33;8.18;;;5.38;;
64619;SDS011;51029;51.058;13.826;2022-07-23T13:20:00;6.03;;;5.40;;
64619;SDS011;51029;51.058;13.826;2022-07-23T13:22:26;5.43;;;5.03;;
64619;SDS011;51029;51.058;13.826;2022-07-23T13:24:52;6.15;;;5.30;;
64619;SDS011;51029;51.058;13.826;2022-07-23T13:27:18;6.13;;;5.50;;
64619;SDS011;51029;51.058;13.826;2022-07-23T13:29:44;6.55;;;5.90;;
64619;SDS011;51029;51.058;13.826;2022-07-23T13:32:10;5.88;;;5.28;;
64619;SDS011;51029;51.058;13.826;2022-07-23T13:34:37;7.28;;;5.25;;
64619;SDS011;51029;51.058;13.826;2022-07-23T13:37:03;7.13;;;5.60;;
64619;SDS011;51029;51.058;13.826;2022-07-23T13:39:29;5.70;;;5.20;;
64619;SDS011;51029;51.058;13.826;2022-07-23T13:41:56;6.03;;;5.43;;
64619;SDS011;51029;51.058;13.826;2022-07-23T13:44:22;5.57;;;5.13;;
64619;SDS011;51029;51.058;13.826;2022-07-23T13:46:48;6.37;;;5.43;;
64619;SDS011;51029;51.058;13.826;2022-07-23T13:49:14;9.50;;;6.00;;
64619;SDS011;51029;51.058;13.826;2022-07-23T13:51:39;6.60;;;5.60;;
64619;SDS011;51029;51.058;13.826;2022-07-23T13:54:05;5.82;;;5.30;;
64619;SDS011;51029;51.058;13.826;2022-07-23T13:56:31;6.00;;;5.40;;
64619;SDS011;51029;51.058;13.826;2022-07-23T13:58:57;6.68;;;5.25;;
64619;SDS011;51029;51.058;13.826;2022-07-23T14:01:23;5.43;;;4.90;;
64619;SDS011;51029;51.058;13.826;2022-07-23T14:03:49;6.18;;;5.40;;
64619;SDS011;51029;51.058;13.826;2022-07-23T14:06:15;5.70;;;5.20;;
64619;SDS011;51029;51.058;13.826;2022-07-23T14:08:41;6.30;;;5.70;;
64619;SDS011;51029;51.058;13.826;2022-07-23T14:11:07;6.80;;;6.20;;
64619;SDS011;51029;51.058;13.826;2022-07-23T14:13:33;7.07;;;6.47;;
64619;SDS011;51029;51.058;13.826;2022-07-23T14:15:59;7.00;;;6.30;;
64619;SDS011;51029;51.058;13.826;2022-07-23T14:18:24;6.67;;;6.07;;
64619;SDS011;51029;51.058;13.826;2022-07-23T14:20:50;6.73;;;6.13;;
64619;SDS011;51029;51.058;13.826;2022-07-23T14:23:16;7.13;;;6.50;;
64619;SDS011;51029;51.058;13.826;2022-07-23T14:25:42;7.30;;;6.33;;
64619;SDS011;51029;51.058;13.826;2022-07-23T14:28:08;7.20;;;6.50;;
64619;SDS011;51029;51.058;13.826;2022-07-23T14:30:36;6.43;;;5.87;;
64619;SDS011;51029;51.058;13.826;2022-07-23T14:33:02;6.73;;;5.97;;
64619;SDS011;51029;51.058;13.826;2022-07-23T14:35:28;6.87;;;6.27;;
64619;SDS011;51029;51.058;13.826;2022-07-23T14:37:54;6.37;;;5.77;;
64619;SDS011;51029;51.058;13.826;2022-07-23T14:40:21;6.40;;;5.80;;
64619;SDS011;51029;51.058;13.826;2022-07-23T14:42:47;6.53;;;5.93;;
64619;SDS011;51029;51.058;13.826;2022-07-23T14:45:13;6.57;;;5.97;;
64619;SDS011;51029;51.058;13.826;2022-07-23T14:47:39;6.40;;;5.80;;
64619;SDS011;51029;51.058;13.826;2022-07-23T14:50:05;6.93;;;5.80;;
64619;SDS011;51029;51.058;13.826;2022-07-23T14:52:31;6.27;;;5.67;;
64619;SDS011;51029;51.058;13.826;2022-07-23T14:54:57;5.63;;;5.00;;
64619;SDS011;51029;51.058;13.826;2022-07-23T14:57:23;6.15;;;5.53;;
64619;SDS011;51029;51.058;13.826;2022-07-23T14:59:49;6.30;;;5.63;;
64619;SDS011;51029;51.058;13.826;2022-07-23T15:02:15;6.65;;;5.80;;
64619;SDS011;51029;51.058;13.826;2022-07-23T15:04:41;6.70;;;6.03;;
64619;SDS011;51029;51.058;13.826;2022-07-23T15:07:07;7.90;;;6.15;;
64619;SDS011;51029;51.058;13.826;2022-07-23T15:09:33;6.22;;;5.63;;
64619;SDS011;51029;51.058;13.826;2022-07-23T15:11:59;7.33;;;6.17;;
64619;SDS011;51029;51.058;13.826;2022-07-23T15:14:25;8.87;;;6.27;;